Time,TemperatureF,DewpointF,PressureIn,WindDirection,WindDirectionDegrees,WindSpeedMPH,WindSpeedGustMPH,Humidity,HourlyPrecipIn,Conditions,Clouds,dailyrainin,SoftwareType,DateUTC
2013-12-11 00:04:00,24.9,20.5,30.67,West,270,0.0,0.0,83,0.00,,,0.00,WUHU216HW,2013-12-10 23:04:00,
2013-12-11 00:09:00,24.9,20.5,30.67,West,270,0.0,0.0,83,0.00,,,0.00,WUHU216HW,2013-12-10 23:09:00,
2013-12-11 00:14:00,24.6,20.2,30.67,West,270,0.0,0.0,83,0.00,,,0.00,WUHU216HW,2013-12-10 23:14:00,
2013-12-11 00:19:00,24.6,20.2,30.67,West,270,0.0,0.0,83,0.00,,,0.00,WUHU216HW,2013-12-10 23:19:00,
2013-12-11 00:24:00,24.6,20.2,30.67,West,270,0.0,0.0,83,0.00,,,0.00,WUHU216HW,2013-12-10 23:24:00,
2013-12-11 00:29:00,24.6,20.2,30.67,West,270,0.0,0.0,83,0.00,,,0.00,WUHU216HW,2013-12-10 23:29:00,
2013-12-11 00:34:00,24.9,20.5,30.67,West,270,0.0,0.0,83,0.00,,,0.00,WUHU216HW,2013-12-10 23:34:00,
2013-12-11 00:39:00,24.9,20.5,30.67,West,270,0.0,0.0,83,0.00,,,0.00,WUHU216HW,2013-12-10 23:39:00,
2013-12-11 00:44:00,24.9,20.2,30.67,West,270,0.0,0.0,82,0.00,,,0.00,WUHU216HW,2013-12-10 23:44:00,
2013-12-11 00:49:00,24.9,20.2,30.67,WNW,293,0.0,0.0,82,0.00,,,0.00,WUHU216HW,2013-12-10 23:49:00,
2013-12-11 00:54:00,25.1,20.4,30.67,West,270,0.0,0.0,82,0.00,,,0.00,WUHU216HW,2013-12-10 23:54:00,
2013-12-11 00:59:00,25.3,20.6,30.67,WNW,293,1.3,1.3,82,0.00,,,0.00,WUHU216HW,2013-12-10 23:59:00,
2013-12-11 01:04:00,25.8,21.1,30.66,WNW,293,2.6,2.6,82,0.00,,,0.00,WUHU216HW,2013-12-11 00:04:00,
2013-12-11 01:09:00,26.4,21.5,30.66,West,270,0.0,2.6,82,0.00,,,0.00,WUHU216HW,2013-12-11 00:09:00,
2013-12-11 01:14:00,27.1,22.0,30.66,WNW,293,1.1,2.6,81,0.00,,,0.00,WUHU216HW,2013-12-11 00:14:00,
2013-12-11 01:19:00,27.1,21.7,30.66,WNW,293,3.5,3.8,80,0.00,,,0.00,WUHU216HW,2013-12-11 00:19:00,
2013-12-11 01:24:00,27.3,21.9,30.67,West,270,0.0,3.8,80,0.00,,,0.00,WUHU216HW,2013-12-11 00:24:00,
2013-12-11 01:29:00,27.3,21.6,30.66,West,270,1.3,1.7,79,0.00,,,0.00,WUHU216HW,2013-12-11 00:29:00,
2013-12-11 01:34:00,26.9,21.2,30.66,WSW,248,0.0,2.0,79,0.00,,,0.00,WUHU216HW,2013-12-11 00:34:00,
2013-12-11 01:39:00,26.6,20.8,30.66,WSW,248,0.0,2.0,79,0.00,,,0.00,WUHU216HW,2013-12-11 00:39:00,
2013-12-11 01:44:00,26.4,20.7,30.67,West,270,0.0,0.0,79,0.00,,,0.00,WUHU216HW,2013-12-11 00:44:00,
2013-12-11 01:49:00,26.4,20.7,30.67,West,270,0.0,2.0,79,0.00,,,0.00,WUHU216HW,2013-12-11 00:49:00,
2013-12-11 01:54:00,26.6,20.8,30.67,West,270,0.8,2.0,79,0.00,,,0.00,WUHU216HW,2013-12-11 00:54:00,
2013-12-11 01:59:00,26.9,21.2,30.67,West,270,0.0,1.7,79,0.00,,,0.00,WUHU216HW,2013-12-11 00:59:00,
2013-12-11 02:04:00,27.3,21.3,30.67,WNW,293,3.5,3.5,78,0.00,,,0.00,WUHU216HW,2013-12-11 01:04:00,
2013-12-11 02:09:00,28.0,22.0,30.67,WNW,293,1.3,3.8,78,0.00,,,0.00,WUHU216HW,2013-12-11 01:09:00,
2013-12-11 02:14:00,28.0,21.7,30.67,WNW,293,0.0,3.8,77,0.00,,,0.00,WUHU216HW,2013-12-11 01:14:00,
2013-12-11 02:19:00,28.2,21.9,30.67,NW,315,2.2,3.1,77,0.00,,,0.00,WUHU216HW,2013-12-11 01:19:00,
2013-12-11 02:24:00,28.5,22.2,30.66,West,270,0.0,3.1,77,0.00,,,0.00,WUHU216HW,2013-12-11 01:24:00,
2013-12-11 02:29:00,28.5,21.9,30.65,West,270,2.0,2.6,76,0.00,,,0.00,WUHU216HW,2013-12-11 01:29:00,
2013-12-11 02:34:00,28.7,22.1,30.65,NW,315,0.0,3.5,76,0.00,,,0.00,WUHU216HW,2013-12-11 01:34:00,
2013-12-11 02:39:00,28.9,22.1,30.66,NW,315,0.0,3.5,76,0.00,,,0.00,WUHU216HW,2013-12-11 01:39:00,
2013-12-11 02:44:00,28.7,21.8,30.66,South,180,0.0,0.8,75,0.00,,,0.00,WUHU216HW,2013-12-11 01:44:00,
2013-12-11 02:49:00,28.7,21.8,30.65,WSW,248,0.0,0.0,75,0.00,,,0.00,WUHU216HW,2013-12-11 01:49:00,
2013-12-11 02:54:00,28.5,21.6,30.66,NE,45,0.0,0.0,75,0.00,,,0.00,WUHU216HW,2013-12-11 01:54:00,
2013-12-11 02:59:00,28.0,21.4,30.65,NNW,338,0.0,0.0,76,0.00,,,0.00,WUHU216HW,2013-12-11 01:59:00,
2013-12-11 03:04:00,27.5,20.8,30.65,NE,45,0.0,0.0,76,0.00,,,0.00,WUHU216HW,2013-12-11 02:04:00,
2013-12-11 03:09:00,27.1,20.8,30.65,North,0,0.0,0.0,77,0.00,,,0.00,WUHU216HW,2013-12-11 02:09:00,
2013-12-11 03:14:00,26.7,20.7,30.65,WNW,293,0.0,0.0,78,0.00,,,0.00,WUHU216HW,2013-12-11 02:14:00,
2013-12-11 03:19:00,26.4,20.4,30.64,West,270,0.0,0.0,78,0.00,,,0.00,WUHU216HW,2013-12-11 02:19:00,
2013-12-11 03:27:00,26.2,20.5,30.65,NNW,338,0.0,0.0,79,0.00,,,0.00,WUHU216HW,2013-12-11 02:27:00,
2013-12-11 03:32:00,26.2,20.5,30.65,SE,135,0.0,0.0,79,0.00,,,0.00,WUHU216HW,2013-12-11 02:32:00,
2013-12-11 03:37:00,26.0,20.5,30.65,SE,135,0.0,0.0,79,0.00,,,0.00,WUHU216HW,2013-12-11 02:37:00,
2013-12-11 03:42:00,25.8,20.5,30.65,ESE,113,0.0,0.0,80,0.00,,,0.00,WUHU216HW,2013-12-11 02:42:00,
2013-12-11 03:47:00,25.7,20.3,30.66,SSE,158,0.0,0.0,80,0.00,,,0.00,WUHU216HW,2013-12-11 02:47:00,
2013-12-11 03:52:00,25.7,20.3,30.65,SSE,158,0.0,0.0,80,0.00,,,0.00,WUHU216HW,2013-12-11 02:52:00,
2013-12-11 03:57:00,25.5,20.4,30.66,SE,135,0.0,0.0,81,0.00,,,0.00,WUHU216HW,2013-12-11 02:57:00,
2013-12-11 04:02:00,25.5,20.4,30.66,NW,315,0.0,0.0,81,0.00,,,0.00,WUHU216HW,2013-12-11 03:02:00,
2013-12-11 04:07:00,25.5,20.4,30.66,ESE,113,0.0,0.0,81,0.00,,,0.00,WUHU216HW,2013-12-11 03:07:00,
2013-12-11 04:12:00,25.5,20.4,30.66,NNE,23,0.0,0.0,81,0.00,,,0.00,WUHU216HW,2013-12-11 03:12:00,
2013-12-11 04:17:00,25.5,20.4,30.65,North,0,0.0,0.0,81,0.00,,,0.00,WUHU216HW,2013-12-11 03:17:00,
2013-12-11 04:22:00,25.5,20.7,30.65,SSE,158,0.0,0.0,82,0.00,,,0.00,WUHU216HW,2013-12-11 03:22:00,
2013-12-11 04:27:00,25.7,20.6,30.65,NW,315,0.0,0.0,81,0.00,,,0.00,WUHU216HW,2013-12-11 03:27:00,
2013-12-11 04:32:00,25.8,20.9,30.65,SW,225,0.0,0.0,82,0.00,,,0.00,WUHU216HW,2013-12-11 03:32:00,
2013-12-11 04:37:00,25.8,21.1,30.65,South,180,0.0,0.0,82,0.00,,,0.00,WUHU216HW,2013-12-11 03:37:00,
2013-12-11 04:42:00,25.8,21.1,30.65,WSW,248,0.0,0.0,82,0.00,,,0.00,WUHU216HW,2013-12-11 03:42:00,
2013-12-11 04:47:00,25.8,21.1,30.65,NNW,338,0.0,0.0,82,0.00,,,0.00,WUHU216HW,2013-12-11 03:47:00,
2013-12-11 04:52:00,26.0,21.2,30.64,WSW,248,0.0,0.0,82,0.00,,,0.00,WUHU216HW,2013-12-11 03:52:00,
2013-12-11 04:57:00,26.4,21.5,30.65,West,270,1.7,1.7,82,0.00,,,0.00,WUHU216HW,2013-12-11 03:57:00,
2013-12-11 05:02:00,26.9,22.1,30.64,West,270,0.0,2.9,82,0.00,,,0.00,WUHU216HW,2013-12-11 04:02:00,
2013-12-11 05:07:00,27.3,22.2,30.64,WNW,293,2.0,2.9,81,0.00,,,0.00,WUHU216HW,2013-12-11 04:07:00,
2013-12-11 05:12:00,27.6,21.9,30.64,North,0,0.0,4.0,79,0.00,,,0.00,WUHU216HW,2013-12-11 04:12:00,
2013-12-11 05:17:00,28.0,22.3,30.64,West,270,2.4,4.4,79,0.00,,,0.00,WUHU216HW,2013-12-11 04:17:00,
2013-12-11 05:22:00,28.0,22.0,30.64,West,270,1.5,4.4,78,0.00,,,0.00,WUHU216HW,2013-12-11 04:22:00,
2013-12-11 05:27:00,27.6,21.6,30.63,WNW,293,0.0,3.5,78,0.00,,,0.00,WUHU216HW,2013-12-11 04:27:00,
2013-12-11 05:32:00,28.0,21.7,30.63,West,270,1.5,3.5,77,0.00,,,0.00,WUHU216HW,2013-12-11 04:32:00,
2013-12-11 05:37:00,28.0,21.7,30.63,WNW,293,2.2,2.2,77,0.00,,,0.00,WUHU216HW,2013-12-11 04:37:00,
2013-12-11 05:42:00,28.0,21.7,30.63,North,0,0.0,2.2,77,0.00,,,0.00,WUHU216HW,2013-12-11 04:42:00,
2013-12-11 05:47:00,28.0,21.4,30.64,WNW,293,2.0,3.3,76,0.00,,,0.00,WUHU216HW,2013-12-11 04:47:00,
2013-12-11 05:52:00,28.0,21.4,30.64,West,270,1.1,4.6,76,0.00,,,0.00,WUHU216HW,2013-12-11 04:52:00,
2013-12-11 05:57:00,28.0,21.1,30.64,WNW,293,2.9,4.6,76,0.00,,,0.00,WUHU216HW,2013-12-11 04:57:00,
2013-12-11 06:01:00,28.0,21.1,30.64,West,270,2.4,3.1,75,0.00,,,0.00,WUHU216HW,2013-12-11 05:01:00,
2013-12-11 06:06:00,28.0,21.1,30.63,WNW,293,1.5,2.9,75,0.00,,,0.00,WUHU216HW,2013-12-11 05:06:00,
2013-12-11 06:11:00,28.0,21.1,30.63,WNW,293,0.8,3.8,75,0.00,,,0.00,WUHU216HW,2013-12-11 05:11:00,
2013-12-11 06:16:00,28.0,21.1,30.63,WNW,293,1.3,3.8,75,0.00,,,0.00,WUHU216HW,2013-12-11 05:16:00,
2013-12-11 06:21:00,28.0,21.1,30.64,WNW,293,0.0,2.2,75,0.00,,,0.00,WUHU216HW,2013-12-11 05:21:00,
2013-12-11 06:26:00,28.0,21.1,30.64,WSW,248,0.0,0.8,75,0.00,,,0.00,WUHU216HW,2013-12-11 05:26:00,
2013-12-11 06:31:00,28.0,21.1,30.64,West,270,0.0,1.1,75,0.00,,,0.00,WUHU216HW,2013-12-11 05:31:00,
2013-12-11 06:36:00,28.2,21.2,30.63,West,270,1.3,1.5,75,0.00,,,0.00,WUHU216HW,2013-12-11 05:36:00,
2013-12-11 06:41:00,28.2,21.2,30.63,WSW,248,0.0,1.5,75,0.00,,,0.00,WUHU216HW,2013-12-11 05:41:00,
2013-12-11 06:46:00,28.5,21.3,30.63,West,270,0.0,1.7,74,0.00,,,0.00,WUHU216HW,2013-12-11 05:46:00,
2013-12-11 06:51:00,28.5,21.3,30.64,ENE,68,0.0,1.7,74,0.00,,,0.00,WUHU216HW,2013-12-11 05:51:00,
2013-12-11 06:56:00,28.2,21.2,30.63,NE,45,0.0,1.3,74,0.00,,,0.00,WUHU216HW,2013-12-11 05:56:00,
2013-12-11 07:01:00,27.6,20.7,30.63,North,0,0.0,1.3,75,0.00,,,0.00,WUHU216HW,2013-12-11 06:01:00,
2013-12-11 07:06:00,27.5,20.8,30.63,ESE,113,0.0,0.0,76,0.00,,,0.00,WUHU216HW,2013-12-11 06:06:00,
2013-12-11 07:11:00,27.1,20.8,30.63,ESE,113,0.0,0.0,77,0.00,,,0.00,WUHU216HW,2013-12-11 06:11:00,
2013-12-11 07:16:00,27.1,20.8,30.63,ESE,113,0.0,0.0,77,0.00,,,0.00,WUHU216HW,2013-12-11 06:16:00,
2013-12-11 07:21:00,27.1,21.1,30.63,WNW,293,0.0,0.0,78,0.00,,,0.00,WUHU216HW,2013-12-11 06:21:00,
2013-12-11 07:26:00,27.1,21.1,30.64,NE,45,0.0,0.0,78,0.00,,,0.00,WUHU216HW,2013-12-11 06:26:00,
2013-12-11 07:31:00,26.9,21.2,30.64,ESE,113,0.0,0.0,79,0.00,,,0.00,WUHU216HW,2013-12-11 06:31:00,
2013-12-11 07:36:00,27.1,21.4,30.63,West,270,0.0,0.0,79,0.00,,,0.00,WUHU216HW,2013-12-11 06:36:00,
2013-12-11 07:41:00,27.5,21.9,30.63,West,270,2.4,3.3,79,0.00,,,0.00,WUHU216HW,2013-12-11 06:41:00,
2013-12-11 07:46:00,28.5,22.2,30.64,West,270,2.2,3.3,77,0.00,,,0.00,WUHU216HW,2013-12-11 06:46:00,
2013-12-11 07:51:00,28.7,22.4,30.64,West,270,0.0,2.2,77,0.00,,,0.00,WUHU216HW,2013-12-11 06:51:00,
2013-12-11 07:56:00,28.9,22.2,30.64,WSW,248,1.5,2.9,76,0.00,,,0.00,WUHU216HW,2013-12-11 06:56:00,
2013-12-11 08:01:00,29.1,22.1,30.64,West,270,1.7,4.0,75,0.00,,,0.00,WUHU216HW,2013-12-11 07:01:00,
2013-12-11 08:06:00,29.3,22.0,30.64,WNW,293,0.0,4.0,74,0.00,,,0.00,WUHU216HW,2013-12-11 07:06:00,
2013-12-11 08:11:00,29.4,22.1,30.64,West,270,2.0,3.5,74,0.00,,,0.00,WUHU216HW,2013-12-11 07:11:00,
2013-12-11 08:16:00,29.6,22.3,30.64,South,180,0.0,2.0,74,0.00,,,0.00,WUHU216HW,2013-12-11 07:16:00,
2013-12-11 08:21:00,29.8,22.5,30.64,ESE,113,0.0,2.0,74,0.00,,,0.00,WUHU216HW,2013-12-11 07:21:00,
2013-12-11 08:26:00,29.8,22.5,30.64,SE,135,0.0,0.0,74,0.00,,,0.00,WUHU216HW,2013-12-11 07:26:00,
2013-12-11 08:31:00,29.4,22.1,30.64,South,180,0.0,0.0,74,0.00,,,0.00,WUHU216HW,2013-12-11 07:31:00,
2013-12-11 08:36:00,29.4,22.4,30.64,ENE,68,0.0,0.0,75,0.00,,,0.00,WUHU216HW,2013-12-11 07:36:00,
2013-12-11 08:41:00,29.4,22.8,30.64,ESE,113,0.0,0.0,76,0.00,,,0.00,WUHU216HW,2013-12-11 07:41:00,
2013-12-11 08:46:00,29.3,22.6,30.64,ENE,68,0.0,0.0,76,0.00,,,0.00,WUHU216HW,2013-12-11 07:46:00,
2013-12-11 08:51:00,29.3,22.6,30.64,SSE,158,0.0,0.0,76,0.00,,,0.00,WUHU216HW,2013-12-11 07:51:00,
2013-12-11 08:56:00,29.3,22.6,30.64,SE,135,0.0,0.0,76,0.00,,,0.00,WUHU216HW,2013-12-11 07:56:00,
2013-12-11 09:01:00,29.4,22.8,30.64,North,0,0.0,0.0,77,0.00,,,0.00,WUHU216HW,2013-12-11 08:01:00,
2013-12-11 09:06:00,29.4,23.1,30.64,NE,45,0.0,0.0,77,0.00,,,0.00,WUHU216HW,2013-12-11 08:06:00,
2013-12-11 19:34:00,31.2,23.2,30.53,South,180,0.0,0.0,72,0.00,,,0.00,WUHU216HW,2013-12-11 18:34:00,
2013-12-11 19:39:00,31.6,23.6,30.52,SSE,158,0.0,0.0,72,0.00,,,0.00,WUHU216HW,2013-12-11 18:39:00,
2013-12-11 19:44:00,31.2,23.4,30.53,SSE,158,0.0,0.0,72,0.00,,,0.00,WUHU216HW,2013-12-11 18:44:00,
2013-12-11 19:49:00,31.2,23.2,30.53,SE,135,0.0,0.0,72,0.00,,,0.00,WUHU216HW,2013-12-11 18:49:00,
2013-12-11 19:54:00,31.2,23.6,30.53,SSE,158,0.0,0.0,73,0.00,,,0.00,WUHU216HW,2013-12-11 18:54:00,
2013-12-11 19:59:00,31.1,23.4,30.53,ESE,113,0.0,0.0,73,0.00,,,0.00,WUHU216HW,2013-12-11 18:59:00,
2013-12-11 20:04:00,30.9,23.5,30.53,WSW,248,0.0,0.0,74,0.00,,,0.00,WUHU216HW,2013-12-11 19:04:00,
2013-12-11 20:09:00,30.7,23.3,30.53,South,180,0.0,0.0,74,0.00,,,0.00,WUHU216HW,2013-12-11 19:09:00,
2013-12-11 20:14:00,30.5,23.5,30.54,WNW,293,0.0,0.0,75,0.00,,,0.00,WUHU216HW,2013-12-11 19:14:00,
2013-12-11 20:19:00,30.5,23.5,30.54,WSW,248,0.0,0.0,75,0.00,,,0.00,WUHU216HW,2013-12-11 19:19:00,
2013-12-11 20:24:00,30.5,23.5,30.53,SW,225,0.0,0.0,75,0.00,,,0.00,WUHU216HW,2013-12-11 19:24:00,
2013-12-11 20:29:00,30.5,23.8,30.53,North,0,0.0,0.0,76,0.00,,,0.00,WUHU216HW,2013-12-11 19:29:00,
2013-12-11 20:34:00,30.3,23.6,30.53,SW,225,0.0,0.0,76,0.00,,,0.00,WUHU216HW,2013-12-11 19:34:00,
2013-12-11 20:39:00,30.2,23.5,30.53,WNW,293,0.0,0.0,76,0.00,,,0.00,WUHU216HW,2013-12-11 19:39:00,
2013-12-11 20:44:00,29.8,23.1,30.53,East,90,0.0,0.0,76,0.00,,,0.00,WUHU216HW,2013-12-11 19:44:00,
2013-12-11 20:49:00,29.3,22.6,30.53,North,0,0.0,0.0,76,0.00,,,0.00,WUHU216HW,2013-12-11 19:49:00,
2013-12-11 20:54:00,29.1,22.4,30.53,WNW,293,0.0,0.0,76,0.00,,,0.00,WUHU216HW,2013-12-11 19:54:00,
2013-12-11 20:59:00,29.1,22.9,30.53,West,270,0.0,0.0,77,0.00,,,0.00,WUHU216HW,2013-12-11 19:59:00,
2013-12-11 21:04:00,29.3,22.9,30.53,WNW,293,0.0,0.0,77,0.00,,,0.00,WUHU216HW,2013-12-11 20:04:00,
2013-12-11 21:09:00,29.6,23.2,30.53,West,270,0.0,0.0,77,0.00,,,0.00,WUHU216HW,2013-12-11 20:09:00,
2013-12-11 21:14:00,29.8,23.4,30.53,WNW,293,0.0,0.0,77,0.00,,,0.00,WUHU216HW,2013-12-11 20:14:00,